sensor_id;sensor_type;location;lat;lon;timestamp;temperature;humidity
2327;DHT22;1174;51.588;7.328;2023-04-15T00:00:58;9.60;99.90
2327;DHT22;1174;51.588;7.328;2023-04-15T00:03:26;9.70;99.90
2327;DHT22;1174;51.588;7.328;2023-04-15T00:05:54;9.60;99.90
2327;DHT22;1174;51.588;7.328;2023-04-15T00:08:21;9.60;99.90
2327;DHT22;1174;51.588;7.328;2023-04-15T00:10:48;9.50;99.90
2327;DHT22;1174;51.588;7.328;2023-04-15T00:13:15;9.50;99.90
2327;DHT22;1174;51.588;7.328;2023-04-15T00:15:43;9.60;99.90
2327;DHT22;1174;51.588;7.328;2023-04-15T00:18:10;9.60;99.90
2327;DHT22;1174;51.588;7.328;2023-04-15T00:20:37;9.50;99.90
2327;DHT22;1174;51.588;7.328;2023-04-15T00:23:06;9.60;99.90
2327;DHT22;1174;51.588;7.328;2023-04-15T00:25:33;9.50;99.90
2327;DHT22;1174;51.588;7.328;2023-04-15T00:28:02;9.60;99.90
2327;DHT22;1174;51.588;7.328;2023-04-15T00:30:35;9.50;99.90
2327;DHT22;1174;51.588;7.328;2023-04-15T00:33:03;9.50;99.90
2327;DHT22;1174;51.588;7.328;2023-04-15T00:35:31;9.60;99.90
2327;DHT22;1174;51.588;7.328;2023-04-15T00:37:58;9.60;99.90
2327;DHT22;1174;51.588;7.328;2023-04-15T00:40:26;9.50;99.90
2327;DHT22;1174;51.588;7.328;2023-04-15T00:42:54;9.40;99.90
2327;DHT22;1174;51.588;7.328;2023-04-15T00:45:21;9.40;99.90
2327;DHT22;1174;51.588;7.328;2023-04-15T00:47:48;9.20;99.90
2327;DHT22;1174;51.588;7.328;2023-04-15T00:50:16;9.20;99.90
2327;DHT22;1174;51.588;7.328;2023-04-15T00:52:43;9.20;99.90
2327;DHT22;1174;51.588;7.328;2023-04-15T00:55:11;9.10;99.90
2327;DHT22;1174;51.588;7.328;2023-04-15T00:57:40;9.10;99.90
2327;DHT22;1174;51.588;7.328;2023-04-15T01:00:07;9.00;99.90
2327;DHT22;1174;51.588;7.328;2023-04-15T01:02:36;8.90;99.90
2327;DHT22;1174;51.588;7.328;2023-04-15T01:05:04;8.80;99.90
2327;DHT22;1174;51.588;7.328;2023-04-15T01:07:33;8.70;99.90
2327;DHT22;1174;51.588;7.328;2023-04-15T01:10:01;8.70;99.90
2327;DHT22;1174;51.588;7.328;2023-04-15T01:12:31;8.70;99.90
2327;DHT22;1174;51.588;7.328;2023-04-15T01:15:01;8.70;99.90
2327;DHT22;1174;51.588;7.328;2023-04-15T01:17:28;8.50;99.90
2327;DHT22;1174;51.588;7.328;2023-04-15T01:19:55;8.50;99.90
2327;DHT22;1174;51.588;7.328;2023-04-15T01:22:24;8.50;99.90
2327;DHT22;1174;51.588;7.328;2023-04-15T01:24:57;8.30;99.90
2327;DHT22;1174;51.588;7.328;2023-04-15T01:27:31;8.20;99.90
2327;DHT22;1174;51.588;7.328;2023-04-15T01:30:00;8.10;99.90
2327;DHT22;1174;51.588;7.328;2023-04-15T01:32:32;8.10;99.90
2327;DHT22;1174;51.588;7.328;2023-04-15T01:34:59;8.00;99.90
2327;DHT22;1174;51.588;7.328;2023-04-15T01:37:26;8.00;99.90
2327;DHT22;1174;51.588;7.328;2023-04-15T01:39:54;8.00;99.90
2327;DHT22;1174;51.588;7.328;2023-04-15T01:42:24;7.90;99.90
2327;DHT22;1174;51.588;7.328;2023-04-15T01:44:53;7.90;99.90
2327;DHT22;1174;51.588;7.328;2023-04-15T01:47:20;7.90;99.90
2327;DHT22;1174;51.588;7.328;2023-04-15T01:49:48;7.80;99.90
2327;DHT22;1174;51.588;7.328;2023-04-15T01:52:15;7.70;99.90
2327;DHT22;1174;51.588;7.328;2023-04-15T01:54:43;7.50;99.90
2327;DHT22;1174;51.588;7.328;2023-04-15T01:57:10;7.40;99.90
2327;DHT22;1174;51.588;7.328;2023-04-15T01:59:37;7.40;99.90
2327;DHT22;1174;51.588;7.328;2023-04-15T02:02:09;7.40;99.90
2327;DHT22;1174;51.588;7.328;2023-04-15T02:04:36;7.50;99.90
2327;DHT22;1174;51.588;7.328;2023-04-15T02:07:03;7.40;99.90
2327;DHT22;1174;51.588;7.328;2023-04-15T02:09:31;7.50;99.90
2327;DHT22;1174;51.588;7.328;2023-04-15T02:11:58;7.50;99.90
2327;DHT22;1174;51.588;7.328;2023-04-15T02:14:29;7.40;99.90
2327;DHT22;1174;51.588;7.328;2023-04-15T02:16:58;7.30;99.90
2327;DHT22;1174;51.588;7.328;2023-04-15T02:19:33;7.20;99.90
2327;DHT22;1174;51.588;7.328;2023-04-15T02:22:00;7.30;99.90
2327;DHT22;1174;51.588;7.328;2023-04-15T02:24:29;7.30;99.90
2327;DHT22;1174;51.588;7.328;2023-04-15T02:26:56;7.30;99.90
2327;DHT22;1174;51.588;7.328;2023-04-15T02:29:23;7.30;99.90
2327;DHT22;1174;51.588;7.328;2023-04-15T02:31:50;7.20;99.90
2327;DHT22;1174;51.588;7.328;2023-04-15T02:34:17;7.20;99.90
2327;DHT22;1174;51.588;7.328;2023-04-15T02:36:45;7.20;99.90
2327;DHT22;1174;51.588;7.328;2023-04-15T02:39:14;7.20;99.90
2327;DHT22;1174;51.588;7.328;2023-04-15T02:41:43;7.00;99.90
2327;DHT22;1174;51.588;7.328;2023-04-15T02:44:12;6.70;99.90
2327;DHT22;1174;51.588;7.328;2023-04-15T02:46:40;6.70;99.90
2327;DHT22;1174;51.588;7.328;2023-04-15T02:49:08;6.70;99.90
2327;DHT22;1174;51.588;7.328;2023-04-15T02:51:36;6.90;99.90
2327;DHT22;1174;51.588;7.328;2023-04-15T02:54:04;6.90;99.90
2327;DHT22;1174;51.588;7.328;2023-04-15T02:56:32;6.80;99.90
2327;DHT22;1174;51.588;7.328;2023-04-15T02:58:59;6.70;99.90
2327;DHT22;1174;51.588;7.328;2023-04-15T03:01:26;6.70;99.90
2327;DHT22;1174;51.588;7.328;2023-04-15T03:03:53;6.50;99.90
2327;DHT22;1174;51.588;7.328;2023-04-15T03:06:27;6.60;99.90
2327;DHT22;1174;51.588;7.328;2023-04-15T03:08:54;6.50;99.90
2327;DHT22;1174;51.588;7.328;2023-04-15T03:11:23;6.50;99.90
2327;DHT22;1174;51.588;7.328;2023-04-15T03:13:51;6.60;99.90
2327;DHT22;1174;51.588;7.328;2023-04-15T03:16:18;6.50;99.90
2327;DHT22;1174;51.588;7.328;2023-04-15T03:18:45;6.50;99.90
2327;DHT22;1174;51.588;7.328;2023-04-15T03:21:12;6.60;99.90
2327;DHT22;1174;51.588;7.328;2023-04-15T03:23:42;6.50;99.90
2327;DHT22;1174;51.588;7.328;2023-04-15T03:26:08;6.50;99.90
2327;DHT22;1174;51.588;7.328;2023-04-15T03:28:37;6.50;99.90
2327;DHT22;1174;51.588;7.328;2023-04-15T03:31:04;6.60;99.90
2327;DHT22;1174;51.588;7.328;2023-04-15T03:33:33;6.50;99.90
2327;DHT22;1174;51.588;7.328;2023-04-15T03:36:01;6.50;99.90
2327;DHT22;1174;51.588;7.328;2023-04-15T03:38:27;6.50;99.90
2327;DHT22;1174;51.588;7.328;2023-04-15T03:40:54;6.50;99.90
2327;DHT22;1174;51.588;7.328;2023-04-15T03:43:24;6.40;99.90
2327;DHT22;1174;51.588;7.328;2023-04-15T03:45:53;6.40;99.90
2327;DHT22;1174;51.588;7.328;2023-04-15T03:48:20;6.30;99.90
2327;DHT22;1174;51.588;7.328;2023-04-15T03:50:47;6.40;99.90
2327;DHT22;1174;51.588;7.328;2023-04-15T03:53:14;6.40;99.90
2327;DHT22;1174;51.588;7.328;2023-04-15T03:55:41;6.40;99.90
2327;DHT22;1174;51.588;7.328;2023-04-15T03:58:09;6.40;99.90
2327;DHT22;1174;51.588;7.328;2023-04-15T04:00:37;6.40;99.90
2327;DHT22;1174;51.588;7.328;2023-04-15T04:03:08;6.40;99.90
2327;DHT22;1174;51.588;7.328;2023-04-15T04:05:36;6.30;99.90
2327;DHT22;1174;51.588;7.328;2023-04-15T04:08:06;6.30;99.90
2327;DHT22;1174;51.588;7.328;2023-04-15T04:10:33;6.30;99.90
2327;DHT22;1174;51.588;7.328;2023-04-15T04:13:00;6.30;99.90
2327;DHT22;1174;51.588;7.328;2023-04-15T04:15:27;6.20;99.90
2327;DHT22;1174;51.588;7.328;2023-04-15T04:17:54;6.10;99.90
2327;DHT22;1174;51.588;7.328;2023-04-15T04:20:23;6.10;99.90
2327;DHT22;1174;51.588;7.328;2023-04-15T04:22:52;6.10;99.90
2327;DHT22;1174;51.588;7.328;2023-04-15T04:25:20;6.00;99.90
2327;DHT22;1174;51.588;7.328;2023-04-15T04:27:47;6.10;99.90
2327;DHT22;1174;51.588;7.328;2023-04-15T04:30:14;6.10;99.90
2327;DHT22;1174;51.588;7.328;2023-04-15T04:32:41;6.00;99.90
2327;DHT22;1174;51.588;7.328;2023-04-15T04:35:08;5.90;99.90
2327;DHT22;1174;51.588;7.328;2023-04-15T04:37:37;6.00;99.90
2327;DHT22;1174;51.588;7.328;2023-04-15T04:40:05;5.90;99.90
2327;DHT22;1174;51.588;7.328;2023-04-15T04:42:33;6.00;99.90
2327;DHT22;1174;51.588;7.328;2023-04-15T04:45:00;6.00;99.90
2327;DHT22;1174;51.588;7.328;2023-04-15T04:47:29;6.10;99.90
2327;DHT22;1174;51.588;7.328;2023-04-15T04:49:56;6.20;99.90
2327;DHT22;1174;51.588;7.328;2023-04-15T04:52:23;6.10;99.90
2327;DHT22;1174;51.588;7.328;2023-04-15T04:54:51;6.00;99.90
2327;DHT22;1174;51.588;7.328;2023-04-15T04:57:18;6.00;99.90
2327;DHT22;1174;51.588;7.328;2023-04-15T04:59:45;5.90;99.90
2327;DHT22;1174;51.588;7.328;2023-04-15T05:02:12;5.80;99.90
2327;DHT22;1174;51.588;7.328;2023-04-15T05:04:40;5.80;99.90
2327;DHT22;1174;51.588;7.328;2023-04-15T05:07:07;5.70;99.90
2327;DHT22;1174;51.588;7.328;2023-04-15T05:09:34;5.80;99.90
2327;DHT22;1174;51.588;7.328;2023-04-15T05:12:03;5.80;99.90
2327;DHT22;1174;51.588;7.328;2023-04-15T05:14:31;5.80;99.90
2327;DHT22;1174;51.588;7.328;2023-04-15T05:16:58;5.80;99.90
2327;DHT22;1174;51.588;7.328;2023-04-15T05:19:25;6.10;99.90
2327;DHT22;1174;51.588;7.328;2023-04-15T05:21:52;6.10;99.90
2327;DHT22;1174;51.588;7.328;2023-04-15T05:24:21;6.20;99.90
2327;DHT22;1174;51.588;7.328;2023-04-15T05:26:49;6.20;99.90
2327;DHT22;1174;51.588;7.328;2023-04-15T05:29:18;6.20;99.90
2327;DHT22;1174;51.588;7.328;2023-04-15T05:31:45;6.20;99.90
2327;DHT22;1174;51.588;7.328;2023-04-15T05:34:12;6.30;99.90
2327;DHT22;1174;51.588;7.328;2023-04-15T05:36:41;6.40;99.90
2327;DHT22;1174;51.588;7.328;2023-04-15T05:39:10;6.40;99.90
2327;DHT22;1174;51.588;7.328;2023-04-15T05:41:37;6.50;99.90
2327;DHT22;1174;51.588;7.328;2023-04-15T05:44:05;6.40;99.90
2327;DHT22;1174;51.588;7.328;2023-04-15T05:46:36;6.30;99.90
2327;DHT22;1174;51.588;7.328;2023-04-15T05:49:03;6.30;99.90
2327;DHT22;1174;51.588;7.328;2023-04-15T05:51:31;6.30;99.90
2327;DHT22;1174;51.588;7.328;2023-04-15T05:53:59;6.30;99.90
2327;DHT22;1174;51.588;7.328;2023-04-15T05:56:26;6.40;99.90
2327;DHT22;1174;51.588;7.328;2023-04-15T05:58:55;6.70;99.90
2327;DHT22;1174;51.588;7.328;2023-04-15T06:01:22;6.70;99.90
2327;DHT22;1174;51.588;7.328;2023-04-15T06:03:51;6.90;99.90
2327;DHT22;1174;51.588;7.328;2023-04-15T06:06:18;7.10;99.90
2327;DHT22;1174;51.588;7.328;2023-04-15T06:08:45;7.30;99.90
2327;DHT22;1174;51.588;7.328;2023-04-15T06:11:12;7.50;99.90
2327;DHT22;1174;51.588;7.328;2023-04-15T06:13:39;7.50;99.90
2327;DHT22;1174;51.588;7.328;2023-04-15T06:16:06;7.60;99.90
2327;DHT22;1174;51.588;7.328;2023-04-15T06:18:33;7.80;99.90
2327;DHT22;1174;51.588;7.328;2023-04-15T06:21:02;7.80;99.90
2327;DHT22;1174;51.588;7.328;2023-04-15T06:23:29;8.00;99.90
2327;DHT22;1174;51.588;7.328;2023-04-15T06:25:56;8.10;99.90
2327;DHT22;1174;51.588;7.328;2023-04-15T06:28:23;8.30;99.90
2327;DHT22;1174;51.588;7.328;2023-04-15T06:30:52;8.40;99.90
2327;DHT22;1174;51.588;7.328;2023-04-15T06:33:19;8.50;99.90
2327;DHT22;1174;51.588;7.328;2023-04-15T06:35:46;8.60;99.90
2327;DHT22;1174;51.588;7.328;2023-04-15T06:38:15;8.70;99.90
2327;DHT22;1174;51.588;7.328;2023-04-15T06:40:43;8.70;99.90
2327;DHT22;1174;51.588;7.328;2023-04-15T06:43:10;8.80;99.90
2327;DHT22;1174;51.588;7.328;2023-04-15T06:45:40;8.90;99.90
2327;DHT22;1174;51.588;7.328;2023-04-15T06:48:07;9.00;99.90
2327;DHT22;1174;51.588;7.328;2023-04-15T06:50:34;9.30;99.90
2327;DHT22;1174;51.588;7.328;2023-04-15T06:53:01;9.40;99.90
2327;DHT22;1174;51.588;7.328;2023-04-15T06:55:30;9.50;99.90
2327;DHT22;1174;51.588;7.328;2023-04-15T06:57:58;9.50;99.90
2327;DHT22;1174;51.588;7.328;2023-04-15T07:00:25;9.40;99.90
2327;DHT22;1174;51.588;7.328;2023-04-15T07:02:53;9.50;99.90
2327;DHT22;1174;51.588;7.328;2023-04-15T07:05:21;9.50;99.90
2327;DHT22;1174;51.588;7.328;2023-04-15T07:07:48;9.60;99.90
2327;DHT22;1174;51.588;7.328;2023-04-15T07:10:16;9.80;99.90
2327;DHT22;1174;51.588;7.328;2023-04-15T07:12:44;9.80;99.90
2327;DHT22;1174;51.588;7.328;2023-04-15T07:15:11;9.90;99.90
2327;DHT22;1174;51.588;7.328;2023-04-15T07:17:38;9.80;99.90
2327;DHT22;1174;51.588;7.328;2023-04-15T07:20:07;10.00;99.90
2327;DHT22;1174;51.588;7.328;2023-04-15T07:22:34;10.10;99.90
2327;DHT22;1174;51.588;7.328;2023-04-15T07:25:01;10.30;99.90
2327;DHT22;1174;51.588;7.328;2023-04-15T07:27:31;10.40;99.90
2327;DHT22;1174;51.588;7.328;2023-04-15T07:30:00;10.30;99.90
2327;DHT22;1174;51.588;7.328;2023-04-15T07:32:30;10.10;99.90
2327;DHT22;1174;51.588;7.328;2023-04-15T07:34:57;10.10;99.90
2327;DHT22;1174;51.588;7.328;2023-04-15T07:37:24;10.30;99.90
2327;DHT22;1174;51.588;7.328;2023-04-15T07:39:51;10.30;99.90
2327;DHT22;1174;51.588;7.328;2023-04-15T07:42:21;10.50;99.90
2327;DHT22;1174;51.588;7.328;2023-04-15T07:44:48;10.50;99.90
2327;DHT22;1174;51.588;7.328;2023-04-15T07:47:16;10.30;99.90
2327;DHT22;1174;51.588;7.328;2023-04-15T07:49:48;10.40;99.90
2327;DHT22;1174;51.588;7.328;2023-04-15T07:52:16;10.70;99.90
2327;DHT22;1174;51.588;7.328;2023-04-15T07:54:43;10.70;99.90
2327;DHT22;1174;51.588;7.328;2023-04-15T07:57:11;11.00;99.90
2327;DHT22;1174;51.588;7.328;2023-04-15T07:59:39;11.20;99.90
2327;DHT22;1174;51.588;7.328;2023-04-15T08:02:06;11.30;99.90
2327;DHT22;1174;51.588;7.328;2023-04-15T08:04:36;11.00;99.90
2327;DHT22;1174;51.588;7.328;2023-04-15T08:07:03;11.00;99.90
2327;DHT22;1174;51.588;7.328;2023-04-15T08:09:30;11.00;99.90
2327;DHT22;1174;51.588;7.328;2023-04-15T08:11:57;11.30;99.90
2327;DHT22;1174;51.588;7.328;2023-04-15T08:14:27;11.50;99.90
2327;DHT22;1174;51.588;7.328;2023-04-15T08:16:54;11.40;99.90
2327;DHT22;1174;51.588;7.328;2023-04-15T08:19:21;11.40;99.90
2327;DHT22;1174;51.588;7.328;2023-04-15T08:21:52;11.50;99.90
2327;DHT22;1174;51.588;7.328;2023-04-15T08:24:19;11.50;99.90
2327;DHT22;1174;51.588;7.328;2023-04-15T08:26:46;11.20;99.90
2327;DHT22;1174;51.588;7.328;2023-04-15T08:29:13;11.10;99.90
2327;DHT22;1174;51.588;7.328;2023-04-15T08:31:40;11.60;99.90
2327;DHT22;1174;51.588;7.328;2023-04-15T08:34:09;11.70;99.90
2327;DHT22;1174;51.588;7.328;2023-04-15T08:36:38;12.00;99.90
2327;DHT22;1174;51.588;7.328;2023-04-15T08:39:08;12.20;99.90
2327;DHT22;1174;51.588;7.328;2023-04-15T08:41:40;12.40;99.90
2327;DHT22;1174;51.588;7.328;2023-04-15T08:44:12;12.30;99.90
2327;DHT22;1174;51.588;7.328;2023-04-15T08:46:40;12.20;99.90
2327;DHT22;1174;51.588;7.328;2023-04-15T08:49:10;12.30;99.90
2327;DHT22;1174;51.588;7.328;2023-04-15T08:51:39;12.20;99.90
2327;DHT22;1174;51.588;7.328;2023-04-15T08:54:08;12.00;99.90
2327;DHT22;1174;51.588;7.328;2023-04-15T08:56:35;12.20;99.90
2327;DHT22;1174;51.588;7.328;2023-04-15T08:59:02;11.90;99.90
2327;DHT22;1174;51.588;7.328;2023-04-15T09:01:31;11.70;99.90
2327;DHT22;1174;51.588;7.328;2023-04-15T09:03:58;11.80;99.90
2327;DHT22;1174;51.588;7.328;2023-04-15T09:06:25;11.70;99.90
2327;DHT22;1174;51.588;7.328;2023-04-15T09:08:53;11.60;99.90
2327;DHT22;1174;51.588;7.328;2023-04-15T09:11:22;11.40;99.90
2327;DHT22;1174;51.588;7.328;2023-04-15T09:13:49;11.30;99.90
2327;DHT22;1174;51.588;7.328;2023-04-15T09:16:24;11.30;99.90
2327;DHT22;1174;51.588;7.328;2023-04-15T09:18:52;11.10;99.90
2327;DHT22;1174;51.588;7.328;2023-04-15T09:21:20;11.10;99.90
2327;DHT22;1174;51.588;7.328;2023-04-15T09:23:56;11.00;99.90
2327;DHT22;1174;51.588;7.328;2023-04-15T09:26:35;11.00;99.90
2327;DHT22;1174;51.588;7.328;2023-04-15T09:29:08;10.90;99.90
2327;DHT22;1174;51.588;7.328;2023-04-15T09:31:38;10.90;99.90
2327;DHT22;1174;51.588;7.328;2023-04-15T09:34:05;11.00;99.90
2327;DHT22;1174;51.588;7.328;2023-04-15T09:36:51;10.90;99.90
2327;DHT22;1174;51.588;7.328;2023-04-15T09:39:19;10.90;99.90
2327;DHT22;1174;51.588;7.328;2023-04-15T09:42:03;11.00;99.90
2327;DHT22;1174;51.588;7.328;2023-04-15T09:44:33;11.20;99.90
2327;DHT22;1174;51.588;7.328;2023-04-15T09:47:00;11.30;99.90
2327;DHT22;1174;51.588;7.328;2023-04-15T09:49:28;11.10;99.90
2327;DHT22;1174;51.588;7.328;2023-04-15T09:51:59;11.10;99.90
2327;DHT22;1174;51.588;7.328;2023-04-15T09:54:33;11.20;99.90
2327;DHT22;1174;51.588;7.328;2023-04-15T09:57:06;11.10;99.90
2327;DHT22;1174;51.588;7.328;2023-04-15T09:59:34;11.10;99.90
2327;DHT22;1174;51.588;7.328;2023-04-15T10:02:04;11.10;99.90
2327;DHT22;1174;51.588;7.328;2023-04-15T10:04:34;11.20;99.90
2327;DHT22;1174;51.588;7.328;2023-04-15T10:07:03;11.20;99.90
2327;DHT22;1174;51.588;7.328;2023-04-15T10:09:31;11.10;99.90
2327;DHT22;1174;51.588;7.328;2023-04-15T10:11:59;11.20;99.90
2327;DHT22;1174;51.588;7.328;2023-04-15T10:14:32;11.20;99.90
2327;DHT22;1174;51.588;7.328;2023-04-15T10:17:01;11.40;99.90
2327;DHT22;1174;51.588;7.328;2023-04-15T10:19:30;11.50;99.90
2327;DHT22;1174;51.588;7.328;2023-04-15T10:21:59;11.40;99.90
2327;DHT22;1174;51.588;7.328;2023-04-15T10:24:31;11.30;99.90
2327;DHT22;1174;51.588;7.328;2023-04-15T10:26:59;11.20;99.90
2327;DHT22;1174;51.588;7.328;2023-04-15T10:29:27;11.10;99.90
2327;DHT22;1174;51.588;7.328;2023-04-15T10:31:55;11.00;99.90
2327;DHT22;1174;51.588;7.328;2023-04-15T10:34:23;11.00;99.90
2327;DHT22;1174;51.588;7.328;2023-04-15T10:36:52;11.10;99.90
2327;DHT22;1174;51.588;7.328;2023-04-15T10:39:40;11.00;99.90
2327;DHT22;1174;51.588;7.328;2023-04-15T10:42:12;10.90;99.90
2327;DHT22;1174;51.588;7.328;2023-04-15T10:44:43;10.70;99.90
2327;DHT22;1174;51.588;7.328;2023-04-15T10:47:15;10.60;99.90
2327;DHT22;1174;51.588;7.328;2023-04-15T10:49:46;10.70;99.90
2327;DHT22;1174;51.588;7.328;2023-04-15T10:52:14;11.00;99.90
2327;DHT22;1174;51.588;7.328;2023-04-15T10:54:43;11.10;99.90
2327;DHT22;1174;51.588;7.328;2023-04-15T10:57:21;11.00;99.90
2327;DHT22;1174;51.588;7.328;2023-04-15T11:02:41;11.10;99.90
2327;DHT22;1174;51.588;7.328;2023-04-15T11:05:09;11.00;99.90
2327;DHT22;1174;51.588;7.328;2023-04-15T11:07:39;10.90;99.90
2327;DHT22;1174;51.588;7.328;2023-04-15T11:13:17;10.90;99.90
2327;DHT22;1174;51.588;7.328;2023-04-15T11:15:47;11.20;99.90
2327;DHT22;1174;51.588;7.328;2023-04-15T11:18:22;11.20;99.90
2327;DHT22;1174;51.588;7.328;2023-04-15T11:20:51;11.30;99.90
2327;DHT22;1174;51.588;7.328;2023-04-15T11:23:28;11.30;99.90
2327;DHT22;1174;51.588;7.328;2023-04-15T11:25:57;11.20;99.90
2327;DHT22;1174;51.588;7.328;2023-04-15T11:28:29;11.20;99.90
2327;DHT22;1174;51.588;7.328;2023-04-15T11:30:56;11.10;99.90
2327;DHT22;1174;51.588;7.328;2023-04-15T11:33:25;11.10;99.90
2327;DHT22;1174;51.588;7.328;2023-04-15T11:35:53;11.00;99.90
2327;DHT22;1174;51.588;7.328;2023-04-15T11:38:22;10.80;99.90
2327;DHT22;1174;51.588;7.328;2023-04-15T11:40:51;10.90;99.90
2327;DHT22;1174;51.588;7.328;2023-04-15T11:43:21;10.90;99.90
2327;DHT22;1174;51.588;7.328;2023-04-15T11:45:50;10.90;99.90
2327;DHT22;1174;51.588;7.328;2023-04-15T11:48:19;11.00;99.90
2327;DHT22;1174;51.588;7.328;2023-04-15T11:50:52;11.10;99.90
2327;DHT22;1174;51.588;7.328;2023-04-15T11:53:19;11.20;99.90
2327;DHT22;1174;51.588;7.328;2023-04-15T11:55:48;11.30;99.90
2327;DHT22;1174;51.588;7.328;2023-04-15T11:58:17;11.30;99.90
2327;DHT22;1174;51.588;7.328;2023-04-15T12:00:49;11.50;99.90
2327;DHT22;1174;51.588;7.328;2023-04-15T12:03:47;11.50;99.90
2327;DHT22;1174;51.588;7.328;2023-04-15T12:06:17;11.40;99.90
2327;DHT22;1174;51.588;7.328;2023-04-15T12:08:54;11.50;99.90
2327;DHT22;1174;51.588;7.328;2023-04-15T12:11:39;11.60;99.90
2327;DHT22;1174;51.588;7.328;2023-04-15T12:14:15;11.80;99.90
2327;DHT22;1174;51.588;7.328;2023-04-15T12:16:45;11.90;99.90
2327;DHT22;1174;51.588;7.328;2023-04-15T12:19:15;11.90;99.90
2327;DHT22;1174;51.588;7.328;2023-04-15T12:21:46;12.00;99.90
2327;DHT22;1174;51.588;7.328;2023-04-15T12:24:13;12.10;99.90
2327;DHT22;1174;51.588;7.328;2023-04-15T12:26:44;11.80;99.90
2327;DHT22;1174;51.588;7.328;2023-04-15T12:29:13;11.70;99.90
2327;DHT22;1174;51.588;7.328;2023-04-15T12:31:48;11.60;99.90
2327;DHT22;1174;51.588;7.328;2023-04-15T12:34:18;11.50;99.90
2327;DHT22;1174;51.588;7.328;2023-04-15T12:37:06;11.60;99.90
2327;DHT22;1174;51.588;7.328;2023-04-15T12:39:35;11.50;99.90
2327;DHT22;1174;51.588;7.328;2023-04-15T12:42:02;11.50;99.90
2327;DHT22;1174;51.588;7.328;2023-04-15T12:44:30;11.60;99.90
2327;DHT22;1174;51.588;7.328;2023-04-15T12:46:58;11.50;99.90
2327;DHT22;1174;51.588;7.328;2023-04-15T12:49:25;11.40;99.90
2327;DHT22;1174;51.588;7.328;2023-04-15T12:51:53;11.40;99.90
2327;DHT22;1174;51.588;7.328;2023-04-15T12:54:25;11.50;99.90
2327;DHT22;1174;51.588;7.328;2023-04-15T12:56:53;11.40;99.90
2327;DHT22;1174;51.588;7.328;2023-04-15T12:59:21;11.40;99.90
2327;DHT22;1174;51.588;7.328;2023-04-15T13:01:52;11.50;99.90
2327;DHT22;1174;51.588;7.328;2023-04-15T13:04:20;11.60;99.90
2327;DHT22;1174;51.588;7.328;2023-04-15T13:06:47;11.70;99.90
2327;DHT22;1174;51.588;7.328;2023-04-15T13:09:14;11.60;99.90
2327;DHT22;1174;51.588;7.328;2023-04-15T13:11:43;11.70;99.90
2327;DHT22;1174;51.588;7.328;2023-04-15T13:14:10;11.80;99.90
2327;DHT22;1174;51.588;7.328;2023-04-15T13:16:37;11.90;99.90
2327;DHT22;1174;51.588;7.328;2023-04-15T13:19:04;11.80;99.90
2327;DHT22;1174;51.588;7.328;2023-04-15T13:21:32;11.70;99.90
2327;DHT22;1174;51.588;7.328;2023-04-15T13:23:59;11.70;99.90
2327;DHT22;1174;51.588;7.328;2023-04-15T13:26:26;11.70;99.90
2327;DHT22;1174;51.588;7.328;2023-04-15T13:28:55;11.50;99.90
2327;DHT22;1174;51.588;7.328;2023-04-15T13:31:22;11.50;99.90
2327;DHT22;1174;51.588;7.328;2023-04-15T13:33:49;11.40;99.90
2327;DHT22;1174;51.588;7.328;2023-04-15T13:36:16;11.50;99.90
2327;DHT22;1174;51.588;7.328;2023-04-15T13:38:43;11.30;99.90
2327;DHT22;1174;51.588;7.328;2023-04-15T13:41:13;11.30;99.90
2327;DHT22;1174;51.588;7.328;2023-04-15T13:43:40;11.20;99.90
2327;DHT22;1174;51.588;7.328;2023-04-15T13:46:10;11.20;99.90
2327;DHT22;1174;51.588;7.328;2023-04-15T13:48:37;11.20;99.90
2327;DHT22;1174;51.588;7.328;2023-04-15T13:51:05;11.30;99.90
2327;DHT22;1174;51.588;7.328;2023-04-15T13:53:34;11.30;99.90
2327;DHT22;1174;51.588;7.328;2023-04-15T13:56:02;11.30;99.90
2327;DHT22;1174;51.588;7.328;2023-04-15T13:58:29;11.20;99.90
2327;DHT22;1174;51.588;7.328;2023-04-15T14:00:56;11.30;99.90
2327;DHT22;1174;51.588;7.328;2023-04-15T14:03:25;11.30;99.90
2327;DHT22;1174;51.588;7.328;2023-04-15T14:05:52;11.40;99.90
2327;DHT22;1174;51.588;7.328;2023-04-15T14:08:21;11.30;99.90
2327;DHT22;1174;51.588;7.328;2023-04-15T14:10:48;11.20;99.90
2327;DHT22;1174;51.588;7.328;2023-04-15T14:13:15;11.20;99.90
2327;DHT22;1174;51.588;7.328;2023-04-15T14:15:44;11.20;99.90
2327;DHT22;1174;51.588;7.328;2023-04-15T14:18:11;11.00;99.90
2327;DHT22;1174;51.588;7.328;2023-04-15T14:20:40;10.90;99.90
2327;DHT22;1174;51.588;7.328;2023-04-15T14:23:07;10.90;99.90
2327;DHT22;1174;51.588;7.328;2023-04-15T14:25:34;10.90;99.90
2327;DHT22;1174;51.588;7.328;2023-04-15T14:28:03;11.00;99.90
2327;DHT22;1174;51.588;7.328;2023-04-15T14:30:30;10.90;99.90
2327;DHT22;1174;51.588;7.328;2023-04-15T14:32:57;10.90;99.90
2327;DHT22;1174;51.588;7.328;2023-04-15T14:35:28;10.80;99.90
2327;DHT22;1174;51.588;7.328;2023-04-15T14:37:57;10.80;99.90
2327;DHT22;1174;51.588;7.328;2023-04-15T14:40:24;10.90;99.90
2327;DHT22;1174;51.588;7.328;2023-04-15T14:42:52;10.90;99.90
2327;DHT22;1174;51.588;7.328;2023-04-15T14:45:22;10.90;99.90
2327;DHT22;1174;51.588;7.328;2023-04-15T14:47:51;10.80;99.90
2327;DHT22;1174;51.588;7.328;2023-04-15T14:50:19;10.80;99.90
2327;DHT22;1174;51.588;7.328;2023-04-15T14:52:45;10.80;99.90
2327;DHT22;1174;51.588;7.328;2023-04-15T14:55:24;10.80;99.90
2327;DHT22;1174;51.588;7.328;2023-04-15T14:57:58;10.70;99.90
2327;DHT22;1174;51.588;7.328;2023-04-15T15:00:28;10.60;99.90
2327;DHT22;1174;51.588;7.328;2023-04-15T15:02:55;10.60;99.90
2327;DHT22;1174;51.588;7.328;2023-04-15T15:05:23;10.60;99.90
2327;DHT22;1174;51.588;7.328;2023-04-15T15:07:54;10.60;99.90
2327;DHT22;1174;51.588;7.328;2023-04-15T15:10:22;10.70;99.90
2327;DHT22;1174;51.588;7.328;2023-04-15T15:12:58;10.70;99.90
2327;DHT22;1174;51.588;7.328;2023-04-15T15:15:37;10.80;99.90
2327;DHT22;1174;51.588;7.328;2023-04-15T15:18:07;10.90;99.90
2327;DHT22;1174;51.588;7.328;2023-04-15T15:20:44;10.70;99.90
2327;DHT22;1174;51.588;7.328;2023-04-15T15:23:13;10.60;99.90
2327;DHT22;1174;51.588;7.328;2023-04-15T15:25:54;10.60;99.90
2327;DHT22;1174;51.588;7.328;2023-04-15T15:28:25;10.60;99.90
2327;DHT22;1174;51.588;7.328;2023-04-15T15:30:55;10.50;99.90
2327;DHT22;1174;51.588;7.328;2023-04-15T15:34:06;10.50;99.90
2327;DHT22;1174;51.588;7.328;2023-04-15T15:36:45;10.40;99.90
2327;DHT22;1174;51.588;7.328;2023-04-15T15:39:18;10.30;99.90
2327;DHT22;1174;51.588;7.328;2023-04-15T15:41:46;10.20;99.90
2327;DHT22;1174;51.588;7.328;2023-04-15T15:44:15;10.20;99.90
2327;DHT22;1174;51.588;7.328;2023-04-15T15:46:42;10.10;99.90
2327;DHT22;1174;51.588;7.328;2023-04-15T15:49:10;10.10;99.90
2327;DHT22;1174;51.588;7.328;2023-04-15T15:51:44;10.10;99.90
2327;DHT22;1174;51.588;7.328;2023-04-15T15:54:40;10.10;99.90
2327;DHT22;1174;51.588;7.328;2023-04-15T16:00:50;10.20;99.90
2327;DHT22;1174;51.588;7.328;2023-04-15T16:03:27;10.20;99.90
2327;DHT22;1174;51.588;7.328;2023-04-15T16:06:35;10.20;99.90
2327;DHT22;1174;51.588;7.328;2023-04-15T16:09:30;10.20;99.90
2327;DHT22;1174;51.588;7.328;2023-04-15T16:12:03;10.10;99.90
2327;DHT22;1174;51.588;7.328;2023-04-15T16:14:55;10.00;99.90
2327;DHT22;1174;51.588;7.328;2023-04-15T16:17:32;10.10;99.90
2327;DHT22;1174;51.588;7.328;2023-04-15T16:20:01;10.10;99.90
2327;DHT22;1174;51.588;7.328;2023-04-15T16:22:43;10.10;99.90
2327;DHT22;1174;51.588;7.328;2023-04-15T16:25:19;10.10;99.90
2327;DHT22;1174;51.588;7.328;2023-04-15T16:28:09;10.10;99.90
2327;DHT22;1174;51.588;7.328;2023-04-15T16:30:53;10.10;99.90
2327;DHT22;1174;51.588;7.328;2023-04-15T16:33:43;10.00;99.90